createdAt,value
2019-02-18T00:00:08.152Z,70.17
2019-02-18T00:01:08.036Z,70.48
2019-02-18T00:02:10.463Z,71.11
2019-02-18T00:03:08.019Z,71.31
2019-02-18T00:04:08.079Z,70.79
2019-02-18T00:05:08.010Z,70.25
2019-02-18T00:07:14.467Z,70.45
2019-02-18T00:08:09.028Z,69.62
2019-02-18T00:09:07.943Z,70.56
2019-02-18T00:10:08.041Z,69.93
2019-02-18T00:11:07.919Z,69.62
2019-02-18T00:12:08.030Z,69.83
2019-02-18T00:13:07.897Z,70.00
2019-02-18T00:14:07.938Z,69.59
2019-02-18T00:15:07.903Z,69.90
2019-02-18T00:17:08.983Z,69.69
2019-02-18T00:18:07.971Z,69.17
2019-02-18T00:19:07.834Z,69.17
2019-02-18T00:20:07.905Z,69.31
2019-02-18T00:21:07.813Z,69.90
2019-02-18T00:23:08.918Z,70.04
2019-02-18T00:24:07.806Z,70.14
2019-02-18T00:25:07.804Z,69.93
2019-02-18T00:26:07.850Z,69.48
2019-02-18T00:27:07.755Z,68.69
2019-02-18T00:28:07.838Z,69.27
2019-02-18T00:29:07.796Z,69.21
2019-02-18T00:30:07.750Z,70.14
2019-02-18T00:31:07.734Z,68.86
2019-02-18T00:32:07.758Z,70.14
2019-02-18T00:33:07.685Z,69.21
2019-02-18T00:34:07.772Z,69.62
2019-02-18T00:35:07.689Z,69.59
2019-02-18T00:36:08.231Z,69.59
2019-02-18T00:37:07.638Z,69.52
2019-02-18T00:38:07.801Z,69.62
2019-02-18T00:39:07.630Z,70.04
2019-02-18T00:41:08.753Z,70.14
2019-02-18T00:42:08.062Z,70.25
2019-02-18T00:43:07.573Z,69.93
2019-02-18T00:45:08.684Z,70.79
2019-02-18T00:46:08.607Z,70.48
2019-02-18T00:47:07.558Z,70.90
2019-02-18T00:49:08.673Z,71.94
2019-02-18T00:51:08.659Z,72.66
2019-02-18T00:53:08.601Z,72.69
2019-02-18T00:55:08.585Z,72.28
2019-02-18T00:56:08.878Z,72.17
2019-02-18T00:57:07.439Z,72.42
2019-02-18T00:59:08.553Z,72.42
2019-02-18T01:00:09.488Z,73.04
2019-02-18T01:01:07.410Z,72.83
2019-02-18T01:02:08.939Z,72.97
2019-02-18T01:03:07.371Z,73.35
2019-02-18T01:05:08.504Z,73.97
2019-02-18T01:07:08.494Z,75.46
2019-02-18T01:08:09.360Z,74.53
2019-02-18T01:09:07.450Z,75.88
2019-02-18T01:11:54.597Z,76.40
2019-02-18T01:12:54.565Z,75.26
2019-02-18T01:13:54.554Z,75.67
2019-02-18T01:14:54.416Z,74.43
2019-02-18T01:15:54.459Z,74.95
2019-02-18T01:16:54.450Z,75.29
2019-02-18T01:17:54.471Z,75.09
2019-02-18T01:18:54.367Z,74.67
2019-02-18T01:19:54.471Z,74.98
2019-02-18T01:20:54.346Z,75.78
2019-02-18T01:21:54.391Z,75.09
2019-02-18T01:22:54.361Z,76.12
2019-02-18T01:24:55.458Z,75.40
2019-02-18T01:26:55.422Z,75.71
2019-02-18T01:27:54.362Z,75.46
2019-02-18T01:28:54.260Z,75.92
2019-02-18T01:29:54.342Z,75.71
2019-02-18T01:30:54.244Z,76.23
2019-02-18T01:31:54.362Z,75.71
2019-02-18T01:32:54.261Z,75.71
2019-02-18T01:33:54.266Z,76.02
2019-02-18T01:34:54.200Z,75.92
2019-02-18T01:35:54.305Z,76.23
2019-02-18T01:36:54.194Z,76.02
2019-02-18T01:37:54.229Z,75.60
2019-02-18T01:38:54.153Z,76.16
2019-02-18T01:40:55.261Z,76.26
2019-02-18T01:42:55.339Z,76.06
2019-02-18T01:43:54.311Z,75.95
2019-02-18T01:44:54.264Z,76.43
2019-02-18T01:47:41.082Z,76.78
2019-02-18T01:48:41.120Z,76.78
2019-02-18T01:49:40.926Z,76.68
2019-02-18T01:50:40.914Z,77.20
2019-02-18T01:51:40.910Z,77.09
2019-02-18T01:52:40.991Z,77.03
2019-02-18T01:53:40.913Z,76.78
2019-02-18T01:54:40.888Z,77.51
2019-02-18T01:55:40.866Z,77.30
2019-02-18T01:56:40.903Z,77.40
2019-02-18T01:57:40.841Z,77.83
2019-02-18T01:58:40.950Z,77.20
2019-02-18T01:59:40.819Z,77.61
2019-02-18T02:00:40.836Z,77.23
2019-02-18T02:01:40.788Z,77.61
2019-02-18T02:02:40.847Z,77.72
2019-02-18T02:03:40.802Z,77.96
2019-02-18T02:04:40.895Z,77.75
2019-02-18T02:05:40.745Z,77.40
2019-02-18T02:06:40.773Z,77.86
2019-02-18T02:07:40.727Z,77.55
2019-02-18T02:08:40.813Z,77.96
2019-02-18T02:09:40.726Z,78.38
2019-02-18T02:10:40.795Z,78.17
2019-02-18T02:11:40.682Z,78.17
2019-02-18T02:12:40.718Z,78.49
2019-02-18T02:13:40.663Z,78.80
2019-02-18T02:14:42.700Z,78.80
2019-02-18T02:15:40.640Z,78.80
2019-02-18T02:17:41.745Z,78.49
2019-02-18T02:18:40.667Z,78.59
2019-02-18T02:19:40.628Z,78.80
2019-02-18T02:20:40.668Z,78.80
2019-02-18T02:21:40.601Z,78.69
2019-02-18T02:22:42.633Z,78.90
2019-02-18T02:23:40.584Z,78.49
2019-02-18T02:24:40.619Z,78.80
2019-02-18T02:25:40.532Z,77.93
2019-02-18T02:26:40.621Z,78.03
2019-02-18T02:27:40.516Z,77.93
2019-02-18T02:28:40.628Z,77.93
2019-02-18T02:29:40.516Z,77.40
2019-02-18T02:30:40.554Z,77.40
2019-02-18T02:31:40.469Z,77.40
2019-02-18T02:33:41.577Z,77.51
2019-02-18T02:34:40.610Z,77.51
2019-02-18T02:35:40.452Z,77.40
2019-02-18T02:36:40.470Z,77.61
2019-02-18T02:37:40.410Z,77.83
2019-02-18T02:38:40.484Z,78.38
2019-02-18T02:39:40.414Z,78.34
2019-02-18T02:40:40.501Z,78.49
2019-02-18T02:41:40.367Z,78.90
2019-02-18T02:43:41.499Z,78.90
2019-02-18T02:44:40.453Z,78.49
2019-02-18T02:45:40.353Z,78.80
2019-02-18T02:46:40.327Z,78.52
2019-02-18T02:47:40.291Z,78.94
2019-02-18T02:48:40.351Z,78.83
2019-02-18T02:49:40.274Z,79.25
2019-02-18T02:50:40.390Z,79.98
2019-02-18T02:51:40.256Z,79.77
2019-02-18T02:52:40.277Z,80.12
2019-02-18T02:53:40.235Z,79.18
2019-02-18T02:54:40.295Z,79.98
2019-02-18T02:55:40.234Z,79.49
2019-02-18T02:56:40.328Z,79.98
2019-02-18T02:57:40.190Z,80.12
2019-02-18T02:58:40.208Z,80.43
2019-02-18T02:59:40.162Z,80.02
2019-02-18T03:00:40.220Z,79.80
2019-02-18T03:01:40.168Z,79.91
2019-02-18T03:02:40.243Z,79.80
2019-02-18T03:03:40.123Z,79.80
2019-02-18T03:04:40.153Z,80.12
2019-02-18T03:05:40.109Z,79.80
2019-02-18T03:06:40.194Z,80.02
2019-02-18T03:07:40.080Z,80.43
2019-02-18T03:08:40.172Z,81.16
2019-02-18T03:09:40.059Z,80.33
2019-02-18T03:10:40.083Z,80.64
2019-02-18T03:11:40.061Z,80.95
2019-02-18T03:12:40.113Z,81.26
2019-02-18T03:13:40.033Z,80.54
2019-02-18T03:14:40.111Z,81.68
2019-02-18T03:15:39.989Z,80.85
2019-02-18T03:16:40.058Z,80.95
2019-02-18T03:17:39.982Z,81.26
2019-02-18T03:18:40.039Z,81.30
2019-02-18T03:19:39.960Z,80.95
2019-02-18T03:20:40.070Z,81.30
2019-02-18T03:21:39.952Z,81.72
2019-02-18T03:22:39.966Z,81.68
2019-02-18T03:23:39.913Z,81.72
2019-02-18T03:24:39.981Z,81.16
2019-02-18T03:25:39.994Z,81.72
2019-02-18T03:26:40.028Z,81.72
2019-02-18T03:27:39.863Z,82.14
2019-02-18T03:28:39.903Z,82.24
2019-02-18T03:29:39.838Z,82.17
2019-02-18T03:30:39.923Z,83.11
2019-02-18T03:31:39.818Z,82.59
2019-02-18T03:32:39.862Z,82.90
2019-02-18T03:33:39.795Z,82.70
2019-02-18T03:34:39.847Z,83.01
2019-02-18T03:35:39.780Z,83.47
2019-02-18T03:36:39.856Z,83.67
2019-02-18T03:37:39.787Z,83.53
2019-02-18T03:38:39.794Z,83.98
2019-02-18T03:39:39.768Z,83.36
2019-02-18T03:40:39.780Z,83.78
2019-02-18T03:41:41.008Z,83.78
2019-02-18T03:42:39.799Z,83.36
2019-02-18T03:43:39.696Z,83.47
2019-02-18T03:44:39.711Z,83.36
2019-02-18T03:45:39.673Z,83.57
2019-02-18T03:46:39.734Z,83.36
2019-02-18T03:47:39.673Z,83.25
2019-02-18T03:49:40.762Z,83.78
2019-02-18T03:50:39.652Z,83.50
2019-02-18T03:51:39.602Z,83.71
2019-02-18T03:52:39.689Z,83.81
2019-02-18T03:53:39.597Z,83.92
2019-02-18T03:55:40.686Z,84.55
2019-02-18T03:56:39.590Z,84.55
2019-02-18T03:57:39.566Z,84.44
2019-02-18T03:58:39.632Z,84.02
2019-02-18T03:59:39.515Z,84.55
2019-02-18T04:00:39.618Z,84.55
2019-02-18T04:01:39.515Z,84.44
2019-02-18T04:02:39.532Z,85.06
2019-02-18T04:03:39.508Z,85.49
2019-02-18T04:04:39.552Z,84.55
2019-02-18T04:05:39.451Z,84.65
2019-02-18T04:06:39.565Z,85.42
2019-02-18T04:07:39.461Z,85.94
2019-02-18T04:08:42.802Z,85.63
2019-02-18T04:09:39.432Z,85.52
2019-02-18T04:10:39.484Z,84.89
2019-02-18T04:11:39.381Z,85.11
2019-02-18T04:12:39.497Z,85.42
2019-02-18T04:13:39.392Z,84.89
2019-02-18T04:14:39.409Z,85.42
2019-02-18T04:15:39.335Z,85.63
2019-02-18T04:16:39.438Z,86.25
2019-02-18T04:17:39.318Z,85.63
2019-02-18T04:18:39.363Z,85.94
2019-02-18T04:19:39.290Z,85.11
2019-02-18T04:20:39.345Z,85.42
2019-02-18T04:21:39.273Z,85.11
2019-02-18T04:22:39.364Z,85.63
2019-02-18T04:23:39.293Z,85.83
2019-02-18T04:24:41.320Z,86.15
2019-02-18T04:25:39.225Z,85.98
2019-02-18T04:26:39.284Z,86.46
2019-02-18T04:27:39.206Z,86.51
2019-02-18T04:28:39.330Z,85.67
2019-02-18T04:29:39.201Z,85.67
2019-02-18T04:30:39.206Z,86.51
2019-02-18T04:31:39.159Z,86.29
2019-02-18T04:32:39.225Z,86.40
2019-02-18T04:33:39.133Z,86.51
2019-02-18T04:34:39.268Z,86.19
2019-02-18T04:35:39.108Z,86.61
2019-02-18T04:36:39.158Z,86.51
2019-02-18T04:37:39.091Z,86.51
2019-02-18T04:38:39.164Z,86.77
2019-02-18T04:39:39.097Z,86.88
2019-02-18T04:40:39.181Z,86.92
2019-02-18T04:41:39.045Z,86.15
2019-02-18T04:43:42.026Z,86.57
2019-02-18T04:44:39.141Z,86.51
2019-02-18T04:45:39.011Z,85.42
2019-02-18T04:46:39.115Z,86.71
2019-02-18T04:47:38.978Z,86.88
2019-02-18T04:48:39.027Z,86.19
2019-02-18T04:49:39.011Z,86.51
2019-02-18T04:51:40.067Z,86.51
2019-02-18T04:52:38.974Z,86.40
2019-02-18T04:53:38.918Z,86.61
2019-02-18T04:54:40.021Z,86.33
2019-02-18T04:55:38.903Z,86.61
2019-02-18T04:57:40.006Z,86.85
2019-02-18T04:59:40.022Z,86.96
2019-02-18T05:00:38.975Z,88.21
2019-02-18T05:01:39.060Z,88.21
2019-02-18T05:02:38.947Z,87.80
2019-02-18T05:03:39.061Z,87.80
2019-02-18T05:04:38.966Z,88.26
2019-02-18T05:05:38.824Z,88.15
2019-02-18T05:06:38.886Z,88.26
2019-02-18T05:07:38.768Z,88.26
2019-02-18T05:08:38.906Z,87.84
2019-02-18T05:09:39.930Z,87.73
2019-02-18T05:10:38.805Z,87.94
2019-02-18T05:11:38.730Z,87.84
2019-02-18T05:12:38.803Z,87.73
2019-02-18T05:13:38.706Z,87.77
2019-02-18T05:14:38.797Z,87.77
2019-02-18T05:15:40.367Z,88.26
2019-02-18T05:16:38.709Z,88.26
2019-02-18T05:17:38.657Z,88.46
2019-02-18T05:18:38.734Z,87.77
2019-02-18T05:19:38.641Z,87.94
2019-02-18T05:20:38.775Z,88.19
2019-02-18T05:21:38.611Z,88.29
2019-02-18T05:22:38.656Z,87.98
2019-02-18T05:23:38.593Z,87.88
2019-02-18T05:24:38.660Z,87.88
2019-02-18T05:25:38.609Z,88.19
2019-02-18T05:26:38.681Z,88.92
2019-02-18T05:27:38.552Z,89.13
2019-02-18T05:28:38.595Z,90.28
2019-02-18T05:29:38.542Z,90.28
2019-02-18T05:30:38.605Z,89.86
2019-02-18T05:31:38.550Z,90.18
2019-02-18T05:33:39.641Z,90.08
2019-02-18T05:34:38.537Z,89.23
2019-02-18T05:35:38.466Z,89.34
2019-02-18T05:36:38.576Z,89.45
2019-02-18T05:37:38.444Z,89.09
2019-02-18T05:38:38.555Z,89.40
2019-02-18T05:39:38.422Z,89.45
2019-02-18T05:40:38.473Z,89.30
2019-02-18T05:41:38.460Z,89.30
2019-02-18T05:42:38.480Z,89.55
2019-02-18T05:43:38.372Z,89.45
2019-02-18T05:44:38.399Z,89.45
2019-02-18T05:45:38.352Z,89.34
2019-02-18T05:46:38.433Z,89.23
2019-02-18T05:47:38.335Z,89.34
2019-02-18T05:49:39.445Z,90.18
2019-02-18T05:50:38.334Z,90.18
2019-02-18T05:51:38.289Z,89.55
2019-02-18T05:52:38.387Z,89.34
2019-02-18T05:53:38.293Z,89.28
2019-02-18T05:54:38.357Z,89.17
2019-02-18T05:55:38.256Z,90.74
2019-02-18T05:56:38.270Z,90.22
2019-02-18T05:57:38.249Z,89.48
2019-02-18T05:58:38.284Z,89.59
2019-02-18T05:59:38.208Z,89.48
2019-02-18T06:00:38.299Z,89.59
2019-02-18T06:01:38.188Z,89.38
2019-02-18T06:02:38.261Z,89.63
2019-02-18T06:03:38.168Z,89.48
2019-02-18T06:05:39.296Z,89.48
2019-02-18T06:06:38.284Z,89.48
2019-02-18T06:07:38.291Z,90.58
2019-02-18T06:08:38.295Z,90.58
2019-02-18T06:09:38.238Z,90.36
2019-02-18T06:10:38.308Z,90.58
2019-02-18T06:11:38.088Z,90.16
2019-02-18T06:12:38.207Z,90.89
2019-02-18T06:13:38.059Z,90.68
2019-02-18T06:14:38.098Z,90.58
2019-02-18T06:15:38.045Z,90.47
2019-02-18T06:16:38.107Z,90.36
2019-02-18T06:17:38.044Z,90.68
2019-02-18T06:18:38.120Z,90.68
2019-02-18T06:19:37.996Z,90.99
2019-02-18T06:20:38.029Z,90.89
2019-02-18T06:21:37.981Z,90.68
2019-02-18T06:22:38.837Z,91.31
2019-02-18T06:23:37.971Z,91.31
2019-02-18T06:24:38.059Z,91.09
2019-02-18T06:25:37.953Z,90.99
2019-02-18T06:26:37.979Z,90.99
2019-02-18T06:27:37.905Z,91.09
2019-02-18T06:28:38.017Z,91.62
2019-02-18T06:29:37.880Z,91.41
2019-02-18T06:30:38.006Z,91.41
2019-02-18T06:31:37.857Z,92.04
2019-02-18T06:32:37.907Z,91.31
2019-02-18T06:33:37.867Z,91.62
2019-02-18T06:34:37.926Z,91.98
2019-02-18T06:35:37.816Z,91.62
2019-02-18T06:36:37.829Z,91.83
2019-02-18T06:37:37.801Z,92.35
2019-02-18T06:38:38.934Z,91.94
2019-02-18T06:39:41.242Z,91.31
2019-02-18T06:40:37.856Z,91.62
2019-02-18T06:41:37.766Z,91.31
2019-02-18T06:42:37.776Z,91.52
2019-02-18T06:43:37.767Z,91.52
2019-02-18T06:44:37.788Z,91.31
2019-02-18T06:45:37.711Z,91.62
2019-02-18T06:46:37.802Z,91.52
2019-02-18T06:47:37.692Z,92.04
2019-02-18T06:48:37.741Z,92.04
2019-02-18T06:49:37.663Z,91.31
2019-02-18T06:50:38.065Z,92.04
2019-02-18T06:51:37.717Z,91.72
2019-02-18T06:52:37.743Z,92.35
2019-02-18T06:53:37.669Z,92.04
2019-02-18T06:54:37.662Z,91.94
2019-02-18T06:55:37.602Z,92.14
2019-02-18T06:56:37.663Z,91.94
2019-02-18T06:57:37.583Z,91.62
2019-02-18T06:58:37.680Z,91.79
2019-02-18T06:59:37.602Z,91.89
2019-02-18T07:00:37.592Z,91.27
2019-02-18T07:01:37.550Z,91.37
2019-02-18T07:02:37.599Z,91.72
2019-02-18T07:03:37.512Z,91.31
2019-02-18T07:04:37.754Z,91.58
2019-02-18T07:05:37.533Z,91.69
2019-02-18T07:06:37.629Z,91.27
2019-02-18T07:07:37.475Z,90.84
2019-02-18T07:08:37.541Z,90.99
2019-02-18T07:09:37.486Z,91.27
2019-02-18T07:10:37.587Z,90.84
2019-02-18T07:11:37.429Z,90.64
2019-02-18T07:12:37.466Z,90.95
2019-02-18T07:13:37.408Z,90.81
2019-02-18T07:14:37.490Z,90.28
2019-02-18T07:15:37.426Z,90.49
2019-02-18T07:16:37.498Z,90.22
2019-02-18T07:17:37.365Z,90.18
2019-02-18T07:18:37.409Z,90.28
2019-02-18T07:19:37.342Z,90.91
2019-02-18T07:20:37.475Z,90.81
2019-02-18T07:21:37.342Z,90.81
2019-02-18T07:22:37.440Z,90.81
2019-02-18T07:23:37.304Z,91.02
2019-02-18T07:24:37.345Z,90.81
2019-02-18T07:25:37.314Z,90.91
2019-02-18T07:26:37.359Z,90.97
2019-02-18T07:27:37.263Z,90.45
2019-02-18T07:28:37.406Z,90.34
2019-02-18T07:29:37.240Z,90.24
2019-02-18T07:30:37.317Z,90.34
2019-02-18T07:31:37.229Z,90.34
2019-02-18T07:32:37.336Z,90.45
2019-02-18T07:33:37.217Z,90.66
2019-02-18T07:34:37.212Z,90.24
2019-02-18T07:35:37.210Z,90.20
2019-02-18T07:36:37.167Z,90.20
2019-02-18T07:37:37.162Z,89.99
2019-02-18T07:38:37.144Z,89.89
2019-02-18T07:39:37.128Z,89.89
2019-02-18T07:40:37.149Z,90.09
2019-02-18T07:41:37.117Z,90.20
2019-02-18T07:42:37.102Z,89.47
2019-02-18T07:43:37.175Z,88.90
2019-02-18T07:44:37.181Z,88.80
2019-02-18T07:45:37.090Z,88.70
2019-02-18T07:46:37.086Z,88.90
2019-02-18T07:47:37.054Z,88.49
2019-02-18T07:49:38.170Z,88.28
2019-02-18T07:50:37.182Z,88.03
2019-02-18T07:51:37.035Z,88.34
2019-02-18T07:52:37.031Z,88.34
2019-02-18T07:53:36.991Z,88.13
2019-02-18T07:54:37.073Z,88.09
2019-02-18T07:55:36.956Z,87.99
2019-02-18T07:56:37.092Z,88.09
2019-02-18T07:57:36.946Z,87.88
2019-02-18T07:58:36.971Z,88.09
2019-02-18T07:59:36.912Z,88.30
2019-02-18T08:00:36.984Z,88.16
2019-02-18T08:01:36.922Z,87.53
2019-02-18T08:02:37.019Z,87.63
2019-02-18T08:03:36.870Z,87.63
2019-02-18T08:04:36.911Z,87.53
2019-02-18T08:05:36.850Z,87.43
2019-02-18T08:06:36.976Z,87.07
2019-02-18T08:07:36.834Z,86.24
2019-02-18T08:08:36.946Z,86.35
2019-02-18T08:09:36.801Z,86.51
2019-02-18T08:10:36.850Z,86.41
2019-02-18T08:11:36.810Z,85.99
2019-02-18T08:12:36.870Z,85.96
2019-02-18T08:13:36.772Z,85.96
2019-02-18T08:14:36.771Z,85.22
2019-02-18T08:15:36.739Z,86.16
2019-02-18T08:16:36.825Z,85.08
2019-02-18T08:17:36.737Z,84.45
2019-02-18T08:18:36.814Z,84.00
2019-02-18T08:19:36.703Z,84.52
2019-02-18T08:20:36.713Z,83.65
2019-02-18T08:21:36.712Z,83.13
2019-02-18T08:22:36.760Z,83.13
2019-02-18T08:23:36.665Z,81.84
2019-02-18T08:24:36.744Z,81.08
2019-02-18T08:25:36.634Z,79.48
2019-02-18T08:26:36.695Z,79.03
2019-02-18T08:27:36.603Z,78.41
2019-02-18T08:28:36.669Z,78.27
2019-02-18T08:29:36.584Z,78.44
2019-02-18T08:30:36.680Z,78.20
2019-02-18T08:31:36.584Z,77.58
2019-02-18T08:32:36.627Z,77.26
2019-02-18T08:33:36.541Z,76.85
2019-02-18T08:34:36.605Z,76.85
2019-02-18T08:35:36.519Z,76.40
2019-02-18T08:36:36.618Z,77.02
2019-02-18T08:37:36.526Z,76.88
2019-02-18T08:38:36.529Z,77.09
2019-02-18T08:39:36.478Z,76.02
2019-02-18T08:40:36.544Z,75.09
2019-02-18T08:41:36.481Z,73.71
2019-02-18T08:42:36.595Z,72.67
2019-02-18T08:43:36.429Z,72.33
2019-02-18T08:44:36.470Z,71.88
2019-02-18T08:45:36.424Z,71.53
2019-02-18T08:46:36.484Z,70.40
2019-02-18T08:47:36.429Z,69.33
2019-02-18T08:48:36.499Z,68.27
2019-02-18T08:49:36.368Z,68.37
2019-02-18T08:50:36.404Z,67.51
2019-02-18T08:51:36.347Z,67.58
2019-02-18T08:52:36.458Z,66.66
2019-02-18T08:53:36.356Z,65.91
2019-02-18T08:54:36.436Z,65.77
2019-02-18T08:55:36.315Z,65.25
2019-02-18T08:56:36.345Z,63.81
2019-02-18T08:57:36.292Z,63.27
2019-02-18T08:58:36.424Z,63.27
2019-02-18T08:59:36.275Z,63.57
2019-02-18T09:00:36.379Z,62.72
2019-02-18T09:01:36.248Z,62.65
2019-02-18T09:02:36.286Z,62.52
2019-02-18T09:03:36.240Z,61.98
2019-02-18T09:04:36.302Z,61.15
2019-02-18T09:05:36.193Z,59.58
2019-02-18T09:06:36.197Z,60.81
2019-02-18T09:07:36.171Z,59.55
2019-02-18T09:08:36.195Z,60.17
2019-02-18T09:09:36.152Z,59.52
2019-02-18T09:10:36.166Z,57.46
2019-02-18T09:11:36.163Z,57.16
2019-02-18T09:12:36.148Z,57.34
2019-02-18T09:13:36.129Z,57.34
2019-02-18T09:14:36.161Z,57.54
2019-02-18T09:15:36.100Z,57.21
2019-02-18T09:16:36.178Z,57.21
2019-02-18T09:17:36.068Z,58.21
2019-02-18T09:18:36.123Z,56.46
2019-02-18T09:19:36.043Z,56.46
2019-02-18T09:20:36.102Z,56.77
2019-02-18T09:21:36.023Z,54.82
2019-02-18T09:22:36.117Z,55.41
2019-02-18T09:23:36.033Z,55.72
2019-02-18T09:24:36.065Z,54.90
2019-02-18T09:25:36.009Z,55.51
2019-02-18T09:26:36.044Z,55.79
2019-02-18T09:27:35.949Z,56.30
2019-02-18T09:28:36.092Z,54.66
2019-02-18T09:29:35.960Z,54.46
2019-02-18T09:30:36.000Z,54.95
2019-02-18T09:31:35.912Z,54.64
2019-02-18T09:32:35.994Z,54.74
2019-02-18T09:33:35.933Z,53.80
2019-02-18T09:34:35.999Z,54.10
2019-02-18T09:35:35.881Z,54.61
2019-02-18T09:36:35.909Z,54.90
2019-02-18T09:37:35.867Z,53.16
2019-02-18T09:38:35.928Z,52.34
2019-02-18T09:39:35.853Z,52.44
2019-02-18T09:40:44.358Z,51.93
2019-02-18T09:41:36.800Z,51.08
2019-02-18T09:42:35.844Z,52.00
2019-02-18T09:43:35.810Z,51.98
2019-02-18T09:44:35.886Z,50.85
2019-02-18T09:45:35.756Z,51.37
2019-02-18T09:46:35.773Z,50.73
2019-02-18T09:47:35.737Z,49.60
2019-02-18T09:48:35.784Z,50.40
2019-02-18T09:49:35.743Z,50.20
2019-02-18T09:50:35.797Z,49.79
2019-02-18T09:51:35.692Z,49.27
2019-02-18T09:52:35.713Z,49.27
2019-02-18T09:53:35.677Z,49.48
2019-02-18T09:54:35.753Z,49.87
2019-02-18T09:55:35.646Z,49.35
2019-02-18T09:56:36.995Z,50.89
2019-02-18T09:57:35.631Z,50.17
2019-02-18T09:58:35.653Z,49.35
2019-02-18T09:59:35.628Z,48.23
2019-02-18T10:00:35.696Z,48.21
2019-02-18T10:01:35.584Z,49.43
2019-02-18T10:02:35.680Z,48.82
2019-02-18T10:03:35.566Z,48.59
2019-02-18T10:04:35.622Z,48.90
2019-02-18T10:05:35.566Z,47.88
2019-02-18T10:06:35.623Z,48.39
2019-02-18T10:07:35.520Z,48.08
2019-02-18T10:08:35.620Z,48.26
2019-02-18T10:09:35.533Z,48.49
2019-02-18T10:10:35.585Z,48.16
2019-02-18T10:11:35.479Z,48.67
2019-02-18T10:12:35.541Z,48.26
2019-02-18T10:13:35.454Z,47.96
2019-02-18T10:14:35.582Z,47.75
2019-02-18T10:15:35.456Z,47.83
2019-02-18T10:16:35.469Z,47.75
2019-02-18T10:17:35.409Z,46.71
2019-02-18T10:18:35.488Z,48.34
2019-02-18T10:19:35.386Z,46.41
2019-02-18T10:20:35.524Z,47.22
2019-02-18T10:21:35.364Z,46.61
2019-02-18T10:22:35.417Z,45.06
2019-02-18T10:23:35.342Z,46.18
2019-02-18T10:24:35.420Z,46.48
2019-02-18T10:25:35.320Z,47.20
2019-02-18T10:26:36.390Z,45.87
2019-02-18T10:27:35.298Z,46.48
2019-02-18T10:28:35.351Z,45.45
2019-02-18T10:29:35.277Z,45.95
2019-02-18T10:30:35.364Z,46.06
2019-02-18T10:31:35.291Z,45.95
2019-02-18T10:32:35.274Z,46.06
2019-02-18T10:33:35.249Z,46.77
2019-02-18T10:34:35.284Z,45.94
2019-02-18T10:35:35.213Z,45.83
2019-02-18T10:36:35.338Z,45.42
2019-02-18T10:37:35.215Z,44.92
2019-02-18T10:38:35.211Z,44.40
2019-02-18T10:39:35.164Z,45.73
2019-02-18T10:40:35.227Z,45.71
2019-02-18T10:41:35.143Z,46.01
2019-02-18T10:42:35.270Z,45.10
2019-02-18T10:43:35.160Z,44.38
2019-02-18T10:44:35.207Z,44.08
2019-02-18T10:45:35.111Z,45.18
2019-02-18T10:46:35.172Z,44.57
2019-02-18T10:47:35.110Z,45.38
2019-02-18T10:48:35.212Z,45.28
2019-02-18T10:49:35.072Z,45.36
2019-02-18T10:50:35.099Z,44.95
2019-02-18T10:51:35.039Z,45.06
2019-02-18T10:52:35.139Z,43.73
2019-02-18T10:53:35.017Z,44.95
2019-02-18T10:54:35.124Z,44.83
2019-02-18T10:55:34.995Z,43.91
2019-02-18T10:56:35.049Z,42.59
2019-02-18T10:57:35.005Z,43.51
2019-02-18T10:58:35.049Z,43.51
2019-02-18T10:59:34.948Z,41.68
2019-02-18T11:00:35.060Z,43.38
2019-02-18T11:01:34.980Z,43.41
2019-02-18T11:02:35.001Z,42.07
2019-02-18T11:03:34.906Z,42.37
2019-02-18T11:04:34.980Z,41.66
2019-02-18T11:05:34.882Z,42.45
2019-02-18T11:06:34.998Z,41.84
2019-02-18T11:07:34.865Z,41.94
2019-02-18T11:08:34.944Z,40.91
2019-02-18T11:09:34.846Z,41.62
2019-02-18T11:10:34.935Z,41.62
2019-02-18T11:11:34.820Z,41.62
2019-02-18T11:12:34.836Z,41.93
2019-02-18T11:13:34.820Z,42.41
2019-02-18T11:14:34.865Z,40.99
2019-02-18T11:15:34.774Z,40.79
2019-02-18T11:16:34.866Z,40.89
2019-02-18T11:17:38.838Z,41.60
2019-02-18T11:18:34.820Z,40.79
2019-02-18T11:19:34.730Z,40.79
2019-02-18T11:20:34.792Z,41.09
2019-02-18T11:21:34.727Z,40.69
2019-02-18T11:22:34.801Z,39.87
2019-02-18T11:23:34.717Z,40.48
2019-02-18T11:24:34.717Z,40.28
2019-02-18T11:25:34.739Z,41.78
2019-02-18T11:26:34.725Z,41.58
2019-02-18T11:27:34.644Z,42.69
2019-02-18T11:28:34.781Z,41.26
2019-02-18T11:29:34.629Z,41.28
2019-02-18T11:30:34.652Z,41.46
2019-02-18T11:31:34.602Z,41.56
2019-02-18T11:32:34.674Z,41.54
2019-02-18T11:33:34.636Z,41.36
2019-02-18T11:34:35.632Z,40.22
2019-02-18T11:35:34.576Z,40.94
2019-02-18T11:36:34.592Z,40.22
2019-02-18T11:37:34.532Z,40.53
2019-02-18T11:38:35.663Z,40.94
2019-02-18T11:39:34.568Z,40.55
2019-02-18T11:40:34.665Z,40.65
2019-02-18T11:41:34.491Z,40.65
2019-02-18T11:42:34.535Z,41.34
2019-02-18T11:43:34.523Z,40.63
2019-02-18T11:44:34.550Z,39.42
2019-02-18T11:45:34.972Z,40.71
2019-02-18T11:46:34.562Z,39.50
2019-02-18T11:47:34.427Z,40.61
2019-02-18T11:48:34.473Z,41.42
2019-02-18T11:49:34.429Z,40.69
2019-02-18T11:50:34.483Z,41.60
2019-02-18T11:51:34.392Z,40.59
2019-02-18T11:52:34.399Z,41.00
2019-02-18T11:53:34.361Z,41.30
2019-02-18T11:54:34.440Z,38.75
2019-02-18T11:55:34.337Z,40.88
2019-02-18T11:56:34.423Z,39.36
2019-02-18T11:57:34.324Z,38.65
2019-02-18T11:58:34.334Z,38.45
2019-02-18T11:59:34.321Z,39.26
2019-02-18T12:00:34.352Z,39.44
2019-02-18T12:01:34.273Z,39.95
2019-02-18T12:02:34.367Z,39.54
2019-02-18T12:03:34.249Z,39.84
2019-02-18T12:04:34.301Z,39.04
2019-02-18T12:05:34.228Z,38.53
2019-02-18T12:06:34.313Z,38.71
2019-02-18T12:07:34.206Z,39.22
2019-02-18T12:08:34.302Z,38.82
2019-02-18T12:09:34.210Z,38.82
2019-02-18T12:10:34.245Z,38.01
2019-02-18T12:11:37.863Z,39.73
2019-02-18T12:12:34.231Z,39.32
2019-02-18T12:13:34.145Z,38.70
2019-02-18T12:14:34.271Z,39.40
2019-02-18T12:15:34.120Z,37.79
2019-02-18T12:16:34.157Z,38.41
2019-02-18T12:17:34.094Z,37.89
2019-02-18T12:19:35.257Z,36.68
2019-02-18T12:20:34.182Z,36.57
2019-02-18T12:21:34.063Z,38.09
2019-02-18T12:22:34.096Z,36.88
2019-02-18T12:23:34.031Z,36.86
2019-02-18T12:24:34.107Z,37.06
2019-02-18T12:25:34.038Z,36.55
2019-02-18T12:26:34.126Z,37.46
2019-02-18T12:27:33.990Z,36.96
2019-02-18T12:28:34.079Z,37.65
2019-02-18T12:29:33.966Z,36.76
2019-02-18T12:30:34.081Z,35.85
2019-02-18T12:31:33.949Z,35.95
2019-02-18T12:32:33.958Z,36.05
2019-02-18T12:33:33.927Z,34.12
2019-02-18T12:34:33.974Z,35.95
2019-02-18T12:35:34.191Z,35.43
2019-02-18T12:36:33.985Z,36.04
2019-02-18T12:37:33.877Z,37.55
2019-02-18T12:38:33.903Z,35.53
2019-02-18T12:39:33.866Z,35.93
2019-02-18T12:40:34.044Z,34.82
2019-02-18T12:41:33.832Z,35.93
2019-02-18T12:42:33.924Z,34.92
2019-02-18T12:43:33.812Z,35.33
2019-02-18T12:44:33.838Z,35.82
2019-02-18T12:45:33.822Z,35.82
2019-02-18T12:46:33.854Z,35.72
2019-02-18T12:47:33.772Z,35.82
2019-02-18T12:48:35.340Z,35.92
2019-02-18T12:49:33.744Z,36.02
2019-02-18T12:50:33.930Z,34.20
2019-02-18T12:51:33.772Z,34.61
2019-02-18T12:52:33.797Z,34.61
2019-02-18T12:53:33.707Z,34.69
2019-02-18T12:54:33.807Z,34.59
2019-02-18T12:55:33.964Z,34.00
2019-02-18T12:56:33.714Z,34.10
2019-02-18T12:57:33.698Z,35.61
2019-02-18T12:58:33.729Z,34.81
2019-02-18T12:59:33.711Z,34.89
2019-02-18T13:00:33.744Z,34.59
2019-02-18T13:01:33.646Z,33.70
2019-02-18T13:02:43.389Z,33.98
2019-02-18T13:03:34.595Z,33.39
2019-02-18T13:05:34.698Z,33.19
2019-02-18T13:06:33.712Z,32.69
2019-02-18T13:07:33.575Z,33.58
2019-02-18T13:08:33.552Z,33.68
2019-02-18T13:09:33.529Z,32.78
2019-02-18T13:10:34.789Z,32.78
2019-02-18T13:11:33.511Z,33.28
2019-02-18T13:12:33.649Z,33.06
2019-02-18T13:13:33.486Z,33.18
2019-02-18T13:14:33.546Z,35.58
2019-02-18T13:15:33.468Z,34.57
2019-02-18T13:17:34.624Z,32.96
2019-02-18T13:18:33.466Z,32.86
2019-02-18T13:19:33.422Z,32.56
2019-02-18T13:20:33.475Z,33.25
2019-02-18T13:21:33.398Z,32.84
2019-02-18T13:22:33.489Z,34.57
2019-02-18T13:23:33.402Z,31.95
2019-02-18T13:24:33.394Z,32.86
2019-02-18T13:25:33.363Z,33.36
2019-02-18T13:26:33.415Z,32.96
2019-02-18T13:27:33.336Z,32.26